createdAt,value
2023-06-10T00:00:21.946Z,45.12
2023-06-10T00:01:00.982Z,45.00
2023-06-10T00:01:34.394Z,45.03
2023-06-10T00:02:07.287Z,45.36
2023-06-10T00:02:42.424Z,45.37
2023-06-10T00:03:15.840Z,45.32
2023-06-10T00:03:48.368Z,45.21
2023-06-10T00:04:23.522Z,45.35
2023-06-10T00:04:56.604Z,45.02
2023-06-10T00:05:31.229Z,45.45
2023-06-10T00:06:06.548Z,45.35
2023-06-10T00:06:38.821Z,45.15
2023-06-10T00:07:11.422Z,45.15
2023-06-10T00:07:47.623Z,45.50
2023-06-10T00:08:20.801Z,45.01
2023-06-10T00:08:53.166Z,45.50
2023-06-10T00:09:28.048Z,45.25
2023-06-10T00:10:00.809Z,45.21
2023-06-10T00:10:33.051Z,45.51
2023-06-10T00:11:07.807Z,45.36
2023-06-10T00:11:40.378Z,45.37
2023-06-10T00:12:12.842Z,45.58
2023-06-10T00:12:47.684Z,45.71
2023-06-10T00:13:19.996Z,45.69
2023-06-10T00:13:52.186Z,45.83
2023-06-10T00:14:26.980Z,45.62
2023-06-10T00:14:59.303Z,45.68
2023-06-10T00:15:31.951Z,45.63
2023-06-10T00:16:09.517Z,45.96
2023-06-10T00:16:41.911Z,45.75
2023-06-10T00:17:16.559Z,46.11
2023-06-10T00:17:54.378Z,45.75
2023-06-10T00:18:28.091Z,45.71
2023-06-10T00:19:02.572Z,46.24
2023-06-10T00:19:37.585Z,46.14
2023-06-10T00:20:13.592Z,46.19
2023-06-10T00:20:46.138Z,46.01
2023-06-10T00:21:21.454Z,46.40
2023-06-10T00:21:53.845Z,46.04
2023-06-10T00:22:30.652Z,46.44
2023-06-10T00:23:07.692Z,46.13
2023-06-10T00:23:40.099Z,46.56
2023-06-10T00:24:13.573Z,46.43
2023-06-10T00:24:48.891Z,46.35
2023-06-10T00:25:21.178Z,46.48
2023-06-10T00:25:53.635Z,46.74
2023-06-10T00:26:28.559Z,46.70
2023-06-10T00:27:00.907Z,46.22
2023-06-10T00:27:36.480Z,46.33
2023-06-10T00:28:11.302Z,46.83
2023-06-10T00:28:43.501Z,46.79
2023-06-10T00:29:16.302Z,46.52
2023-06-10T00:29:51.477Z,46.59
2023-06-10T00:30:23.793Z,46.75
2023-06-10T00:30:56.054Z,46.86
2023-06-10T00:31:33.794Z,47.22
2023-06-10T00:32:07.112Z,47.26
2023-06-10T00:32:41.276Z,46.75
2023-06-10T00:33:16.311Z,47.11
2023-06-10T00:33:48.559Z,47.33
2023-06-10T00:34:20.780Z,46.86
2023-06-10T00:34:53.023Z,47.42
2023-06-10T00:35:27.862Z,47.49
2023-06-10T00:36:00.223Z,47.23
2023-06-10T00:36:33.534Z,47.04
2023-06-10T00:37:09.226Z,47.64
2023-06-10T00:37:41.699Z,47.21
2023-06-10T00:38:15.758Z,47.71
2023-06-10T00:38:51.767Z,47.47
2023-06-10T00:39:23.971Z,47.52
2023-06-10T00:39:56.232Z,47.82
2023-06-10T00:40:31.362Z,47.65
2023-06-10T00:41:04.413Z,48.16
2023-06-10T00:41:36.660Z,48.14
2023-06-10T00:42:12.375Z,47.76
2023-06-10T00:42:44.595Z,48.16
2023-06-10T00:43:16.875Z,47.83
2023-06-10T00:43:51.986Z,48.06
2023-06-10T00:44:24.322Z,48.41
2023-06-10T00:44:56.740Z,47.93
2023-06-10T00:45:31.506Z,47.94
2023-06-10T00:46:04.170Z,48.36
2023-06-10T00:46:39.221Z,47.96
2023-06-10T00:47:14.062Z,48.24
2023-06-10T00:47:47.375Z,48.49
2023-06-10T00:48:19.899Z,48.04
2023-06-10T00:48:54.831Z,48.56
2023-06-10T00:49:27.844Z,48.42
2023-06-10T00:50:01.071Z,48.46
2023-06-10T00:50:36.003Z,48.15
2023-06-10T00:51:10.254Z,48.54
2023-06-10T00:51:42.788Z,48.27
2023-06-10T00:52:18.676Z,48.71
2023-06-10T00:52:55.676Z,48.79
2023-06-10T00:53:29.201Z,48.71
2023-06-10T00:54:04.303Z,48.81
2023-06-10T00:54:36.697Z,48.84
2023-06-10T00:55:09.442Z,48.49
2023-06-10T00:55:45.242Z,48.50
2023-06-10T00:56:17.665Z,48.83
2023-06-10T00:56:51.027Z,48.33
2023-06-10T00:57:26.642Z,48.34
2023-06-10T00:57:58.867Z,48.53
2023-06-10T00:58:32.570Z,48.38
2023-06-10T00:59:07.726Z,48.35
2023-06-10T00:59:41.110Z,48.27
2023-06-10T01:00:14.847Z,48.84
2023-06-10T01:00:51.018Z,48.48
2023-06-10T01:01:23.515Z,48.49
2023-06-10T01:01:58.724Z,48.73
2023-06-10T01:02:33.713Z,48.91
2023-06-10T01:03:09.504Z,48.41
2023-06-10T01:03:41.950Z,48.57
2023-06-10T01:04:18.493Z,48.69
2023-06-10T01:04:50.738Z,48.92
2023-06-10T01:05:24.110Z,49.06
2023-06-10T01:06:07.732Z,48.99
2023-06-10T01:06:48.656Z,48.55
2023-06-10T01:07:27.470Z,48.78
2023-06-10T01:08:07.840Z,48.87
2023-06-10T01:08:51.030Z,49.08
2023-06-10T01:09:31.706Z,48.57
2023-06-10T01:10:13.481Z,48.91
2023-06-10T01:10:50.838Z,48.97
2023-06-10T01:11:29.556Z,49.01
2023-06-10T01:12:12.441Z,49.02
2023-06-10T01:12:51.595Z,48.78
2023-06-10T01:13:30.049Z,49.01
2023-06-10T01:14:06.543Z,48.86
2023-06-10T01:14:39.930Z,48.95
2023-06-10T01:15:14.890Z,48.90
2023-06-10T01:15:47.370Z,49.21
2023-06-10T01:16:21.040Z,49.09
2023-06-10T01:16:56.501Z,49.18
2023-06-10T01:17:31.782Z,49.18
2023-06-10T01:18:05.474Z,49.12
2023-06-10T01:18:40.529Z,48.96
2023-06-10T01:19:14.210Z,49.31
2023-06-10T01:19:56.291Z,49.31
2023-06-10T01:20:33.396Z,49.54
2023-06-10T01:21:06.051Z,49.85
2023-06-10T01:21:42.053Z,49.59
2023-06-10T01:22:17.192Z,49.82
2023-06-10T01:22:49.989Z,49.49
2023-06-10T01:23:28.436Z,49.83
2023-06-10T01:24:01.048Z,49.98
2023-06-10T01:24:35.454Z,50.00
2023-06-10T01:25:09.213Z,49.82
2023-06-10T01:25:46.661Z,49.59
2023-06-10T01:26:23.562Z,49.49
2023-06-10T01:27:01.599Z,49.62
2023-06-10T01:27:41.980Z,49.76
2023-06-10T01:28:28.729Z,49.78
2023-06-10T01:29:11.655Z,49.65
2023-06-10T01:29:54.225Z,50.16
2023-06-10T01:30:31.092Z,49.79
2023-06-10T01:31:17.244Z,49.93
2023-06-10T01:31:53.836Z,49.99
2023-06-10T01:32:35.874Z,50.01
2023-06-10T01:33:11.008Z,49.82
2023-06-10T01:33:46.980Z,50.27
2023-06-10T01:34:22.931Z,49.75
2023-06-10T01:34:56.284Z,50.19
2023-06-10T01:35:29.901Z,49.81
2023-06-10T01:36:06.274Z,49.87
2023-06-10T01:36:42.514Z,50.30
2023-06-10T01:37:19.311Z,50.28
2023-06-10T01:37:58.310Z,50.44
2023-06-10T01:38:34.977Z,50.07
2023-06-10T01:39:09.450Z,50.17
2023-06-10T01:39:45.609Z,50.37
2023-06-10T01:40:18.421Z,50.42
2023-06-10T01:40:52.819Z,50.42
2023-06-10T01:41:28.795Z,50.27
2023-06-10T01:42:22.604Z,50.86
2023-06-10T01:42:57.596Z,50.70
2023-06-10T01:43:29.849Z,50.60
2023-06-10T01:44:15.395Z,50.88
2023-06-10T01:44:47.758Z,50.90
2023-06-10T01:45:20.130Z,50.59
2023-06-10T01:45:55.411Z,50.76
2023-06-10T01:46:27.611Z,50.58
2023-06-10T01:46:59.972Z,51.10
2023-06-10T01:47:36.005Z,50.70
2023-06-10T01:48:08.576Z,50.58
2023-06-10T01:48:41.042Z,50.99
2023-06-10T01:49:15.894Z,50.75
2023-06-10T01:49:49.881Z,51.27
2023-06-10T01:50:22.246Z,51.29
2023-06-10T01:50:57.272Z,51.42
2023-06-10T01:51:29.553Z,51.13
2023-06-10T01:52:04.986Z,51.23
2023-06-10T01:52:41.848Z,50.89
2023-06-10T01:53:14.104Z,51.11
2023-06-10T01:53:46.362Z,51.07
2023-06-10T01:54:21.229Z,50.97
2023-06-10T01:54:53.646Z,51.18
2023-06-10T01:55:26.012Z,51.41
2023-06-10T01:56:01.241Z,51.15
2023-06-10T01:56:35.169Z,51.26
2023-06-10T01:57:08.261Z,51.09
2023-06-10T01:57:43.096Z,51.08
2023-06-10T01:58:15.275Z,51.11
2023-06-10T01:58:47.492Z,51.37
2023-06-10T01:59:22.509Z,51.38
2023-06-10T01:59:54.807Z,51.51
2023-06-10T02:00:27.149Z,51.55
2023-06-10T02:01:02.184Z,51.63
2023-06-10T02:01:35.186Z,52.40
2023-06-10T02:02:08.223Z,52.46
2023-06-10T02:02:40.627Z,52.73
2023-06-10T02:03:15.693Z,52.80
2023-06-10T02:03:48.506Z,52.70
2023-06-10T02:04:20.819Z,53.25
2023-06-10T02:04:55.635Z,53.16
2023-06-10T02:05:27.946Z,53.15
2023-06-10T02:06:00.192Z,53.52
2023-06-10T02:06:36.054Z,53.23
2023-06-10T02:07:13.471Z,52.92
2023-06-10T02:07:45.867Z,53.09
2023-06-10T02:08:20.741Z,53.05
2023-06-10T02:08:52.916Z,53.06
2023-06-10T02:09:25.790Z,53.06
2023-06-10T02:10:00.680Z,53.15
2023-06-10T02:10:35.179Z,53.00
2023-06-10T02:11:08.335Z,53.32
2023-06-10T02:11:43.188Z,52.96
2023-06-10T02:12:17.455Z,53.34
2023-06-10T02:12:50.703Z,53.33
2023-06-10T02:13:25.558Z,53.20
2023-06-10T02:14:00.168Z,53.61
2023-06-10T02:14:34.366Z,53.54
2023-06-10T02:15:09.571Z,53.82
2023-06-10T02:15:41.949Z,53.49
2023-06-10T02:16:15.223Z,53.55
2023-06-10T02:16:50.163Z,53.39
2023-06-10T02:17:22.572Z,53.42
2023-06-10T02:17:56.037Z,53.77
2023-06-10T02:18:31.603Z,53.62
2023-06-10T02:19:07.753Z,54.30
2023-06-10T02:19:44.067Z,53.98
2023-06-10T02:20:19.267Z,54.05
2023-06-10T02:20:51.451Z,54.09
2023-06-10T02:21:23.645Z,54.72
2023-06-10T02:21:58.431Z,54.57
2023-06-10T02:22:33.710Z,55.00
2023-06-10T02:23:06.595Z,54.79
2023-06-10T02:23:41.657Z,55.04
2023-06-10T02:24:14.485Z,55.30
2023-06-10T02:24:46.765Z,55.56
2023-06-10T02:25:21.693Z,55.30
2023-06-10T02:25:53.918Z,55.31
2023-06-10T02:26:27.243Z,55.99
2023-06-10T02:27:02.760Z,55.85
2023-06-10T02:27:34.953Z,55.79
2023-06-10T02:28:07.255Z,55.77
2023-06-10T02:28:42.629Z,55.89
2023-06-10T02:29:15.162Z,56.52
2023-06-10T02:29:47.380Z,56.48
2023-06-10T02:30:22.334Z,56.80
2023-06-10T02:30:54.656Z,57.04
2023-06-10T02:31:27.667Z,56.95
2023-06-10T02:32:02.982Z,56.68
2023-06-10T02:32:35.402Z,56.41
2023-06-10T02:33:11.072Z,56.44
2023-06-10T02:33:47.574Z,56.46
2023-06-10T02:34:20.193Z,56.46
2023-06-10T02:34:52.424Z,56.59
2023-06-10T02:35:26.238Z,56.20
2023-06-10T02:36:02.102Z,56.13
2023-06-10T02:36:36.979Z,56.30
2023-06-10T02:37:09.548Z,56.14
2023-06-10T02:37:47.343Z,55.98
2023-06-10T02:38:19.610Z,56.11
2023-06-10T02:38:51.872Z,55.58
2023-06-10T02:39:26.967Z,55.90
2023-06-10T02:39:59.696Z,55.91
2023-06-10T02:40:32.993Z,55.46
2023-06-10T02:41:07.754Z,55.50
2023-06-10T02:41:40.003Z,55.38
2023-06-10T02:42:12.464Z,55.38
2023-06-10T02:42:47.610Z,55.19
2023-06-10T02:43:20.224Z,55.51
2023-06-10T02:43:53.642Z,55.15
2023-06-10T02:44:28.604Z,55.46
2023-06-10T02:45:02.147Z,55.18
2023-06-10T02:45:49.425Z,55.15
2023-06-10T02:46:22.706Z,55.19
2023-06-10T02:46:55.007Z,54.94
2023-06-10T02:47:29.820Z,55.04
2023-06-10T02:48:02.638Z,54.76
2023-06-10T02:48:46.677Z,54.76
2023-06-10T02:49:24.490Z,55.09
2023-06-10T02:49:56.775Z,54.98
2023-06-10T02:50:31.584Z,54.56
2023-06-10T02:51:27.349Z,54.64
2023-06-10T02:52:08.462Z,54.71
2023-06-10T02:52:40.917Z,54.65
2023-06-10T02:53:16.215Z,54.86
2023-06-10T02:53:55.708Z,54.77
2023-06-10T02:54:27.945Z,55.06
2023-06-10T02:55:01.760Z,54.70
2023-06-10T02:55:36.737Z,55.02
2023-06-10T02:56:13.877Z,55.18
2023-06-10T02:56:47.081Z,55.22
2023-06-10T02:57:27.180Z,54.84
2023-06-10T02:58:00.491Z,55.05
2023-06-10T02:58:33.436Z,55.35
2023-06-10T02:59:08.511Z,55.14
2023-06-10T02:59:41.585Z,55.36
2023-06-10T03:00:15.452Z,55.43
2023-06-10T03:00:51.912Z,55.25
2023-06-10T03:01:24.334Z,55.55
2023-06-10T03:02:08.139Z,55.34
2023-06-10T03:02:50.252Z,55.04
2023-06-10T03:03:24.779Z,55.05
2023-06-10T03:04:08.588Z,54.74
2023-06-10T03:04:42.349Z,55.01
2023-06-10T03:05:19.581Z,55.00
2023-06-10T03:05:57.956Z,54.50
2023-06-10T03:06:30.888Z,54.56
2023-06-10T03:07:13.834Z,54.12
2023-06-10T03:07:48.888Z,54.05
2023-06-10T03:08:24.622Z,54.11
2023-06-10T03:08:56.867Z,53.92
2023-06-10T03:09:31.679Z,54.07
2023-06-10T03:10:08.392Z,53.89
2023-06-10T03:10:42.782Z,54.14
2023-06-10T03:11:20.815Z,53.51
2023-06-10T03:11:54.223Z,53.48
2023-06-10T03:12:26.433Z,54.08
2023-06-10T03:13:01.272Z,53.65
2023-06-10T03:13:33.955Z,53.88
2023-06-10T03:14:06.227Z,53.83
2023-06-10T03:14:41.710Z,53.36
2023-06-10T03:15:14.481Z,53.41
2023-06-10T03:15:47.450Z,53.38
2023-06-10T03:16:26.536Z,53.62
2023-06-10T03:16:58.809Z,53.49
2023-06-10T03:17:31.228Z,53.55
2023-06-10T03:18:06.884Z,53.35
2023-06-10T03:18:39.888Z,53.30
2023-06-10T03:19:12.565Z,53.63
2023-06-10T03:19:50.864Z,53.35
2023-06-10T03:20:23.561Z,53.74
2023-06-10T03:20:57.615Z,53.50
2023-06-10T03:21:32.073Z,53.09
2023-06-10T03:22:14.921Z,53.34
2023-06-10T03:22:57.203Z,53.29
2023-06-10T03:23:32.327Z,52.98
2023-06-10T03:24:08.267Z,53.22
2023-06-10T03:24:41.642Z,52.76
2023-06-10T03:25:16.117Z,52.99
2023-06-10T03:25:56.166Z,52.96
2023-06-10T03:26:29.578Z,52.94
2023-06-10T03:27:02.450Z,52.65
2023-06-10T03:27:37.507Z,52.95
2023-06-10T03:28:13.114Z,53.16
2023-06-10T03:28:45.522Z,53.19
2023-06-10T03:29:20.830Z,52.86
2023-06-10T03:29:53.170Z,53.02
2023-06-10T03:30:25.748Z,52.92
2023-06-10T03:30:58.045Z,53.02
2023-06-10T03:31:36.458Z,52.99
2023-06-10T03:32:10.085Z,52.84
2023-06-10T03:32:44.543Z,52.62
2023-06-10T03:33:23.366Z,52.64
2023-06-10T03:33:55.683Z,53.21
2023-06-10T03:34:28.490Z,52.99
2023-06-10T03:35:03.260Z,53.02
2023-06-10T03:35:37.462Z,53.22
2023-06-10T03:36:14.074Z,53.24
2023-06-10T03:36:46.450Z,53.58
2023-06-10T03:37:19.324Z,53.40
2023-06-10T03:37:56.215Z,53.53
2023-06-10T03:38:28.452Z,53.55
2023-06-10T03:39:03.352Z,53.51
2023-06-10T03:39:38.339Z,53.76
2023-06-10T03:40:11.578Z,53.88
2023-06-10T03:40:47.218Z,53.69
2023-06-10T03:41:22.573Z,53.37
2023-06-10T03:41:57.267Z,53.67
2023-06-10T03:42:30.902Z,53.75
2023-06-10T03:43:06.169Z,53.57
2023-06-10T03:43:40.122Z,53.77
2023-06-10T03:44:12.811Z,53.18
2023-06-10T03:44:45.399Z,53.46
2023-06-10T03:45:20.269Z,53.53
2023-06-10T03:45:53.703Z,53.68
2023-06-10T03:46:26.119Z,53.29
2023-06-10T03:47:01.263Z,53.34
2023-06-10T03:47:36.195Z,53.63
2023-06-10T03:48:09.962Z,53.45
2023-06-10T03:48:52.373Z,53.55
2023-06-10T03:49:28.337Z,53.55
2023-06-10T03:50:02.446Z,53.68
2023-06-10T03:50:37.965Z,54.18
2023-06-10T03:51:10.249Z,54.17
2023-06-10T03:51:42.448Z,54.11
2023-06-10T03:52:17.225Z,54.03
2023-06-10T03:52:49.540Z,54.11
2023-06-10T03:53:24.634Z,53.68
2023-06-10T03:53:59.971Z,53.84
2023-06-10T03:54:35.959Z,54.01
2023-06-10T03:55:10.342Z,53.99
2023-06-10T03:55:46.102Z,53.71
2023-06-10T03:56:18.617Z,53.88
2023-06-10T03:56:50.818Z,54.01
2023-06-10T03:57:25.638Z,53.93
2023-06-10T03:57:57.890Z,53.80
2023-06-10T03:58:30.100Z,53.86
2023-06-10T03:59:06.871Z,53.91
2023-06-10T03:59:40.167Z,53.89
2023-06-10T04:00:13.947Z,54.22
2023-06-10T04:00:51.829Z,54.07
2023-06-10T04:01:24.904Z,54.06
2023-06-10T04:01:57.223Z,53.90
2023-06-10T04:02:34.318Z,53.84
2023-06-10T04:03:10.553Z,53.88
2023-06-10T04:03:47.155Z,53.52
2023-06-10T04:04:22.007Z,53.52
2023-06-10T04:04:54.333Z,53.81
2023-06-10T04:05:26.562Z,53.46
2023-06-10T04:05:59.660Z,53.86
2023-06-10T04:06:35.110Z,53.42
2023-06-10T04:07:07.771Z,53.67
2023-06-10T04:07:42.001Z,54.04
2023-06-10T04:08:37.575Z,53.53
2023-06-10T04:09:11.113Z,54.01
2023-06-10T04:09:46.092Z,53.84
2023-06-10T04:11:16.056Z,53.63
2023-06-10T04:11:49.413Z,53.14
2023-06-10T04:12:21.618Z,53.34
2023-06-10T04:13:24.137Z,52.82
2023-06-10T04:14:02.435Z,52.95
2023-06-10T04:14:38.025Z,53.06
2023-06-10T04:15:11.891Z,52.75
2023-06-10T04:15:44.414Z,52.58
2023-06-10T04:16:24.428Z,52.60
2023-06-10T04:16:56.959Z,52.36
2023-06-10T04:17:29.284Z,52.83
2023-06-10T04:18:04.915Z,52.68
2023-06-10T04:18:38.303Z,52.55
2023-06-10T04:19:13.392Z,52.16
2023-06-10T04:19:48.422Z,52.66
2023-06-10T04:20:20.775Z,52.58
2023-06-10T04:20:54.456Z,52.20
2023-06-10T04:21:29.340Z,52.19
2023-06-10T04:22:02.477Z,52.39
2023-06-10T04:22:35.173Z,52.52
2023-06-10T04:23:10.187Z,52.10
2023-06-10T04:23:42.851Z,52.28
2023-06-10T04:24:16.423Z,52.07
2023-06-10T04:24:55.249Z,52.18
2023-06-10T04:25:28.042Z,52.04
2023-06-10T04:26:00.841Z,52.06
2023-06-10T04:26:36.032Z,51.91
2023-06-10T04:27:08.417Z,52.02
2023-06-10T04:27:40.913Z,51.60
2023-06-10T04:28:15.825Z,51.64
2023-06-10T04:28:49.337Z,51.88
2023-06-10T04:29:21.603Z,51.77
2023-06-10T04:29:56.982Z,51.69
2023-06-10T04:30:29.818Z,51.67
2023-06-10T04:31:03.022Z,51.77
2023-06-10T04:31:37.978Z,51.73
2023-06-10T04:32:10.774Z,51.52
2023-06-10T04:32:43.849Z,51.51
2023-06-10T04:33:23.077Z,51.20
2023-06-10T04:33:55.864Z,51.27
2023-06-10T04:34:28.090Z,50.91
2023-06-10T04:35:04.103Z,51.12
2023-06-10T04:35:37.199Z,51.14
2023-06-10T04:36:11.666Z,50.87
2023-06-10T04:36:46.801Z,50.83
2023-06-10T04:37:19.523Z,50.90
2023-06-10T04:37:51.750Z,50.58
2023-06-10T04:38:27.789Z,50.47
2023-06-10T04:39:00.075Z,50.53
2023-06-10T04:39:36.705Z,50.71
2023-06-10T04:40:17.172Z,50.42
2023-06-10T04:40:50.416Z,50.54
2023-06-10T04:41:24.284Z,51.00
2023-06-10T04:41:59.195Z,50.44
2023-06-10T04:42:31.392Z,50.82
2023-06-10T04:43:03.673Z,50.37
2023-06-10T04:43:39.331Z,50.30
2023-06-10T04:44:12.231Z,50.20
2023-06-10T04:44:44.555Z,50.54
2023-06-10T04:45:20.032Z,50.04
2023-06-10T04:45:52.323Z,50.41
2023-06-10T04:46:25.452Z,50.43
2023-06-10T04:47:00.487Z,50.21
2023-06-10T04:47:34.516Z,49.89
2023-06-10T04:48:08.937Z,50.51
2023-06-10T04:48:43.830Z,50.41
2023-06-10T04:49:16.542Z,50.27
2023-06-10T04:49:49.167Z,50.06
2023-06-10T04:50:24.368Z,49.82
2023-06-10T04:50:57.549Z,49.95
2023-06-10T04:51:29.833Z,50.20
2023-06-10T04:52:05.416Z,49.82
2023-06-10T04:52:43.137Z,49.61
2023-06-10T04:53:16.363Z,50.03
2023-06-10T04:53:53.961Z,49.96
2023-06-10T04:54:26.573Z,49.65
2023-06-10T04:54:59.762Z,49.47
2023-06-10T04:55:37.499Z,49.92
2023-06-10T04:56:10.250Z,49.91
2023-06-10T04:56:42.538Z,49.94
2023-06-10T04:57:17.446Z,49.99
2023-06-10T04:57:52.286Z,49.64
2023-06-10T04:58:27.573Z,49.87
2023-06-10T04:58:59.962Z,49.98
2023-06-10T04:59:32.271Z,49.86
2023-06-10T05:00:09.743Z,49.55
2023-06-10T05:00:42.900Z,49.54
2023-06-10T05:01:15.173Z,49.76
2023-06-10T05:01:49.966Z,49.55
2023-06-10T05:02:22.293Z,49.77
2023-06-10T05:02:54.791Z,49.37
2023-06-10T05:03:29.678Z,49.70
2023-06-10T05:04:02.036Z,49.41
2023-06-10T05:04:34.325Z,49.87
2023-06-10T05:05:09.995Z,49.96
2023-06-10T05:05:42.510Z,50.07
2023-06-10T05:06:17.285Z,49.62
2023-06-10T05:06:49.566Z,49.73
2023-06-10T05:07:21.757Z,49.80
2023-06-10T05:07:56.526Z,49.88
2023-06-10T05:08:28.747Z,50.22
2023-06-10T05:09:00.917Z,50.00
2023-06-10T05:09:34.311Z,49.92
2023-06-10T05:10:10.828Z,49.65
2023-06-10T05:10:45.730Z,49.61
2023-06-10T05:11:18.063Z,50.00
2023-06-10T05:11:50.402Z,49.81
2023-06-10T05:12:25.953Z,49.52
2023-06-10T05:12:58.434Z,49.39
2023-06-10T05:13:31.012Z,49.57
2023-06-10T05:14:06.523Z,49.47
2023-06-10T05:14:38.721Z,49.55
2023-06-10T05:15:12.532Z,49.32
2023-06-10T05:15:47.818Z,49.30
2023-06-10T05:16:37.836Z,49.46
2023-06-10T05:17:10.145Z,49.20
2023-06-10T05:17:47.837Z,49.36
2023-06-10T05:18:20.120Z,49.09
2023-06-10T05:18:53.497Z,48.99
2023-06-10T05:19:28.677Z,48.59
2023-06-10T05:20:01.088Z,48.50
2023-06-10T05:20:58.332Z,48.39
2023-06-10T05:22:36.676Z,48.27
2023-06-10T05:23:11.564Z,48.52
2023-06-10T05:23:47.431Z,48.24
2023-06-10T05:24:19.705Z,48.55
2023-06-10T05:24:54.836Z,48.49
2023-06-10T05:25:27.676Z,48.43
2023-06-10T05:26:02.560Z,47.97
2023-06-10T05:26:38.716Z,48.31
2023-06-10T05:27:10.967Z,48.25
2023-06-10T05:27:44.182Z,48.36
2023-06-10T05:28:19.656Z,48.04
2023-06-10T05:28:52.004Z,47.88
2023-06-10T05:29:24.338Z,47.76
2023-06-10T05:29:59.444Z,47.78
2023-06-10T05:30:31.627Z,47.60
2023-06-10T05:31:04.171Z,47.98
2023-06-10T05:31:39.088Z,47.59
2023-06-10T05:32:11.431Z,48.01
2023-06-10T05:32:43.773Z,47.49
2023-06-10T05:33:18.646Z,47.45
2023-06-10T05:33:50.903Z,47.67
2023-06-10T05:34:23.233Z,47.67
2023-06-10T05:34:58.554Z,47.39
2023-06-10T05:35:30.782Z,47.77
2023-06-10T05:36:03.283Z,47.27
2023-06-10T05:36:38.106Z,47.86
2023-06-10T05:37:10.445Z,47.37
2023-06-10T05:37:42.704Z,47.73
2023-06-10T05:38:17.955Z,47.38
2023-06-10T05:38:50.196Z,47.36
2023-06-10T05:39:25.021Z,47.77
2023-06-10T05:39:57.345Z,47.44
2023-06-10T05:40:29.695Z,47.34
2023-06-10T05:41:07.199Z,47.45
2023-06-10T05:41:39.410Z,47.35
2023-06-10T05:42:11.799Z,47.36
2023-06-10T05:42:46.644Z,47.68
2023-06-10T05:43:18.854Z,47.81
2023-06-10T05:43:51.072Z,47.44
2023-06-10T05:44:23.277Z,47.59
2023-06-10T05:44:58.117Z,47.64
2023-06-10T05:45:30.360Z,47.91
2023-06-10T05:46:02.602Z,47.41
2023-06-10T05:46:37.890Z,47.49
2023-06-10T05:47:10.284Z,48.04
2023-06-10T05:47:42.620Z,47.97
2023-06-10T05:48:17.889Z,47.62
2023-06-10T05:48:50.089Z,47.26
2023-06-10T05:49:22.281Z,47.30
2023-06-10T05:49:57.066Z,47.76
2023-06-10T05:50:29.388Z,47.24
2023-06-10T05:51:01.833Z,47.39
2023-06-10T05:51:37.450Z,47.55
2023-06-10T05:52:10.653Z,47.05
2023-06-10T05:52:42.879Z,47.18
2023-06-10T05:53:18.858Z,47.01
2023-06-10T05:53:51.221Z,47.29
2023-06-10T05:54:23.439Z,47.26
2023-06-10T05:54:58.236Z,46.72
2023-06-10T05:55:30.596Z,46.68
2023-06-10T05:56:05.995Z,46.86
2023-06-10T05:56:40.862Z,46.85
2023-06-10T05:57:13.224Z,46.82
2023-06-10T05:57:45.498Z,46.96
2023-06-10T05:58:17.763Z,46.63
2023-06-10T05:58:52.676Z,46.78
2023-06-10T05:59:25.015Z,46.44
2023-06-10T05:59:57.200Z,46.64
2023-06-10T06:00:32.117Z,46.41
2023-06-10T06:01:04.404Z,46.21
2023-06-10T06:01:36.717Z,46.47
2023-06-10T06:02:11.728Z,46.42
2023-06-10T06:02:44.063Z,45.96
2023-06-10T06:03:16.460Z,45.86
2023-06-10T06:03:51.305Z,46.05
2023-06-10T06:04:23.554Z,46.22
2023-06-10T06:04:56.123Z,45.83
2023-06-10T06:05:28.336Z,45.73
2023-06-10T06:06:04.447Z,46.25
2023-06-10T06:06:39.939Z,45.76
2023-06-10T06:07:12.155Z,45.63
2023-06-10T06:07:47.157Z,45.98
2023-06-10T06:08:19.935Z,45.97
2023-06-10T06:08:52.149Z,45.41
2023-06-10T06:09:26.908Z,45.44
2023-06-10T06:09:59.236Z,45.38
2023-06-10T06:10:31.525Z,45.72
2023-06-10T06:11:09.178Z,45.71
2023-06-10T06:11:42.461Z,45.19
2023-06-10T06:12:14.861Z,45.56
2023-06-10T06:12:49.600Z,45.07
2023-06-10T06:13:21.873Z,45.11
2023-06-10T06:13:54.400Z,45.21
2023-06-10T06:14:29.200Z,45.16
2023-06-10T06:15:01.406Z,45.59
2023-06-10T06:15:33.618Z,45.93
2023-06-10T06:16:08.619Z,46.45
2023-06-10T06:16:40.877Z,46.83
2023-06-10T06:17:13.847Z,46.88
2023-06-10T06:17:48.674Z,47.24
2023-06-10T06:18:20.908Z,47.19
2023-06-10T06:18:53.147Z,47.61
2023-06-10T06:19:27.925Z,47.38
2023-06-10T06:20:00.261Z,47.85
2023-06-10T06:20:32.537Z,47.32
2023-06-10T06:21:07.333Z,47.61
2023-06-10T06:21:39.649Z,47.13
2023-06-10T06:22:12.124Z,47.45
2023-06-10T06:22:46.894Z,47.22
2023-06-10T06:23:19.145Z,47.14
2023-06-10T06:23:51.508Z,47.11
2023-06-10T06:24:26.503Z,47.41
2023-06-10T06:24:58.905Z,47.25
2023-06-10T06:25:31.208Z,47.09
2023-06-10T06:26:09.082Z,47.51
2023-06-10T06:26:41.426Z,47.76
2023-06-10T06:27:13.795Z,47.37
2023-06-10T06:27:48.608Z,47.83
2023-06-10T06:28:22.286Z,47.44
2023-06-10T06:28:54.572Z,47.78
2023-06-10T06:29:31.232Z,47.84
2023-06-10T06:30:04.699Z,47.77
2023-06-10T06:30:37.352Z,47.61
2023-06-10T06:31:09.597Z,47.44
2023-06-10T06:31:44.539Z,47.54
2023-06-10T06:32:16.804Z,47.79
2023-06-10T06:32:49.053Z,47.70
2023-06-10T06:33:24.058Z,47.39
2023-06-10T06:33:56.742Z,47.81
2023-06-10T06:34:28.898Z,47.51
2023-06-10T06:35:01.098Z,47.68
2023-06-10T06:35:37.075Z,47.84
2023-06-10T06:36:09.277Z,47.88
2023-06-10T06:36:41.435Z,47.48
2023-06-10T06:37:16.306Z,47.80
2023-06-10T06:37:50.193Z,47.58
2023-06-10T06:38:30.174Z,47.65
2023-06-10T06:39:02.373Z,47.28
2023-06-10T06:39:34.933Z,47.73
2023-06-10T06:40:11.214Z,47.82
2023-06-10T06:40:43.659Z,47.53
2023-06-10T06:41:18.505Z,47.70
2023-06-10T06:41:53.261Z,47.66
2023-06-10T06:42:31.941Z,47.39
2023-06-10T06:43:11.798Z,47.87
2023-06-10T06:44:04.126Z,47.83
2023-06-10T06:44:41.583Z,48.04
2023-06-10T06:45:14.255Z,47.68
2023-06-10T06:45:46.482Z,47.93
2023-06-10T06:46:21.347Z,47.66
2023-06-10T06:46:53.561Z,47.97
2023-06-10T06:47:26.159Z,47.63
2023-06-10T06:48:01.104Z,47.69
2023-06-10T06:48:33.568Z,47.51
2023-06-10T06:49:05.862Z,48.04
2023-06-10T06:49:40.660Z,47.78
2023-06-10T06:50:12.974Z,47.95
2023-06-10T06:50:45.189Z,47.81
2023-06-10T06:51:19.989Z,48.09
2023-06-10T06:51:52.209Z,48.18
2023-06-10T06:52:24.804Z,48.00
2023-06-10T06:52:59.688Z,48.31
2023-06-10T06:53:32.334Z,48.29
2023-06-10T06:54:06.991Z,48.15
2023-06-10T06:54:41.812Z,47.86
2023-06-10T06:55:14.215Z,47.71
2023-06-10T06:55:46.552Z,47.75
2023-06-10T06:56:24.086Z,47.66
2023-06-10T06:56:56.293Z,47.61
2023-06-10T06:57:28.464Z,47.85
2023-06-10T06:58:05.423Z,47.63
2023-06-10T06:58:37.892Z,47.55
2023-06-10T06:59:10.139Z,47.65
2023-06-10T06:59:44.947Z,47.67
2023-06-10T07:00:18.081Z,47.37
2023-06-10T07:00:50.312Z,47.74
2023-06-10T07:01:25.209Z,47.61
2023-06-10T07:01:57.443Z,47.81
2023-06-10T07:02:29.890Z,47.52
2023-06-10T07:03:05.096Z,47.71
2023-06-10T07:03:37.655Z,47.42
2023-06-10T07:04:10.198Z,47.89
2023-06-10T07:04:45.468Z,47.45
2023-06-10T07:05:17.713Z,47.60
2023-06-10T07:05:49.953Z,47.67
2023-06-10T07:06:24.887Z,47.52
2023-06-10T07:06:57.257Z,47.55
2023-06-10T07:07:29.468Z,47.46
2023-06-10T07:08:04.307Z,47.51
2023-06-10T07:08:36.487Z,47.12
2023-06-10T07:09:09.889Z,47.59
2023-06-10T07:09:44.760Z,47.46
2023-06-10T07:10:17.081Z,47.49
2023-06-10T07:10:52.564Z,47.51
2023-06-10T07:11:27.419Z,47.51
2023-06-10T07:12:00.405Z,47.32
2023-06-10T07:12:35.316Z,47.28
2023-06-10T07:13:07.475Z,46.94
2023-06-10T07:13:39.639Z,47.16
2023-06-10T07:14:14.422Z,46.93
2023-06-10T07:14:46.592Z,47.05
2023-06-10T07:15:21.672Z,46.85
2023-06-10T07:15:53.834Z,47.21
2023-06-10T07:16:26.166Z,47.35
2023-06-10T07:17:01.015Z,47.34
2023-06-10T07:17:33.353Z,46.79
2023-06-10T07:18:08.559Z,46.98
2023-06-10T07:18:40.732Z,47.28
2023-06-10T07:19:15.600Z,46.96
2023-06-10T07:19:47.966Z,46.81
2023-06-10T07:20:20.238Z,47.08
2023-06-10T07:20:55.146Z,46.63
2023-06-10T07:21:29.716Z,46.83
2023-06-10T07:22:02.063Z,47.08
2023-06-10T07:22:36.864Z,46.93
2023-06-10T07:23:09.090Z,46.93
2023-06-10T07:23:46.546Z,46.38
2023-06-10T07:24:18.824Z,46.85
2023-06-10T07:24:52.319Z,46.76
2023-06-10T07:25:27.104Z,46.74
2023-06-10T07:25:59.335Z,46.16